createdAt,value
2022-10-23T00:01:26.858Z,11.32
2022-10-23T00:03:58.150Z,11.35
2022-10-23T00:06:26.252Z,12.65
2022-10-23T00:08:53.231Z,11.65
2022-10-23T00:11:24.511Z,9.85
2022-10-23T00:13:53.396Z,11.57
2022-10-23T00:16:20.441Z,11.18
2022-10-23T00:18:47.347Z,11.70
2022-10-23T00:21:15.855Z,10.27
2022-10-23T00:23:43.224Z,11.35
2022-10-23T00:26:16.566Z,11.10
2022-10-23T00:28:45.492Z,10.50
2022-10-23T00:31:13.078Z,10.88
2022-10-23T00:33:40.215Z,11.55
2022-10-23T00:36:09.691Z,11.32
2022-10-23T00:38:37.267Z,10.05
2022-10-23T00:41:07.139Z,11.98
2022-10-23T00:43:54.466Z,11.07
2022-10-23T00:46:21.375Z,11.38
2022-10-23T00:48:48.362Z,10.95
2022-10-23T00:51:15.312Z,11.05
2022-10-23T00:53:52.851Z,11.30
2022-10-23T00:56:24.191Z,11.05
2022-10-23T00:58:51.129Z,12.13
2022-10-23T01:01:20.892Z,13.43
2022-10-23T01:03:49.010Z,12.07
2022-10-23T01:06:30.489Z,11.05
2022-10-23T01:09:09.537Z,12.18
2022-10-23T01:11:41.106Z,13.93
2022-10-23T01:14:25.113Z,13.73
2022-10-23T01:17:25.140Z,13.07
2022-10-23T01:19:57.888Z,12.52
2022-10-23T01:25:10.084Z,13.95
2022-10-23T01:27:41.240Z,11.20
2022-10-23T01:30:16.919Z,11.90
2022-10-23T01:33:26.143Z,10.65
2022-10-23T01:35:59.394Z,12.48
2022-10-23T01:38:49.745Z,13.35
2022-10-23T01:41:21.204Z,12.68
2022-10-23T01:44:06.316Z,11.68
2022-10-23T01:46:35.777Z,12.73
2022-10-23T01:49:04.468Z,12.52
2022-10-23T01:51:32.120Z,13.23
2022-10-23T01:54:01.241Z,13.68
2022-10-23T01:56:33.631Z,12.30
2022-10-23T01:59:06.448Z,11.45
2022-10-23T02:01:34.832Z,13.68
2022-10-23T02:04:05.731Z,12.85
2022-10-23T02:06:32.788Z,12.77
2022-10-23T02:08:59.766Z,12.75
2022-10-23T02:11:26.734Z,12.65
2022-10-23T02:14:24.542Z,14.35
2022-10-23T02:16:53.901Z,14.43
2022-10-23T02:19:36.287Z,14.63
2022-10-23T02:22:06.176Z,14.07
2022-10-23T02:24:41.158Z,13.90
2022-10-23T02:27:15.315Z,14.25
2022-10-23T02:29:52.113Z,13.43
2022-10-23T02:32:22.390Z,12.85
2022-10-23T02:34:49.257Z,13.52
2022-10-23T02:37:16.647Z,13.45
2022-10-23T02:39:43.690Z,12.70
2022-10-23T02:42:29.372Z,13.77
2022-10-23T02:45:20.177Z,12.80
2022-10-23T02:47:57.947Z,13.25
2022-10-23T02:50:42.887Z,14.80
2022-10-23T02:53:29.832Z,16.42
2022-10-23T02:56:15.151Z,12.85
2022-10-23T02:59:01.398Z,13.40
2022-10-23T03:01:54.778Z,13.00
2022-10-23T03:04:25.114Z,12.32
2022-10-23T03:06:52.406Z,13.18
2022-10-23T03:09:19.552Z,13.45
2022-10-23T03:11:46.520Z,14.25
2022-10-23T03:14:14.031Z,35.28
2022-10-23T03:16:40.936Z,18.75
2022-10-23T03:19:07.902Z,24.67
2022-10-23T03:21:34.827Z,18.80
2022-10-23T03:24:01.736Z,16.15
2022-10-23T03:26:28.685Z,15.35
2022-10-23T03:28:55.609Z,21.45
2022-10-23T03:31:22.569Z,24.70
2022-10-23T03:33:49.513Z,22.27
2022-10-23T03:36:16.418Z,24.70
2022-10-23T03:38:43.302Z,28.35
2022-10-23T03:41:10.202Z,21.25
2022-10-23T03:43:37.192Z,18.60
2022-10-23T03:46:09.182Z,19.60
2022-10-23T03:48:39.409Z,20.45
2022-10-23T03:51:06.686Z,18.40
2022-10-23T03:53:34.178Z,20.23
2022-10-23T03:56:01.123Z,19.50
2022-10-23T03:58:28.032Z,19.27
2022-10-23T04:00:54.962Z,19.95
2022-10-23T04:03:21.822Z,19.10
2022-10-23T04:05:52.096Z,17.75
2022-10-23T04:08:20.237Z,18.85
2022-10-23T04:10:47.490Z,16.88
2022-10-23T04:13:14.588Z,16.23
2022-10-23T04:15:41.460Z,18.20
2022-10-23T04:18:08.341Z,18.92
2022-10-23T04:20:35.197Z,17.48
2022-10-23T04:23:02.068Z,18.40
2022-10-23T04:25:29.030Z,19.02
2022-10-23T04:27:55.910Z,19.48
2022-10-23T04:30:22.782Z,17.27
2022-10-23T04:32:53.243Z,16.35
2022-10-23T04:35:20.581Z,17.45
2022-10-23T04:37:48.414Z,16.05
2022-10-23T04:40:15.378Z,17.13
2022-10-23T04:42:42.504Z,17.65
2022-10-23T04:45:10.025Z,18.50
2022-10-23T04:47:36.910Z,16.60
2022-10-23T04:50:04.273Z,15.15
2022-10-23T04:52:31.159Z,15.93
2022-10-23T04:54:58.069Z,15.93
2022-10-23T04:57:25.054Z,15.50
2022-10-23T04:59:51.907Z,17.20
2022-10-23T05:02:18.832Z,16.52
2022-10-23T05:04:45.705Z,13.75
2022-10-23T05:07:12.718Z,15.10
2022-10-23T05:09:39.707Z,15.35
2022-10-23T05:12:06.631Z,14.02
2022-10-23T05:14:33.483Z,14.25
2022-10-23T05:17:00.319Z,14.98
2022-10-23T05:19:46.278Z,15.52
2022-10-23T05:22:14.666Z,13.85
2022-10-23T05:24:41.606Z,14.10
2022-10-23T05:27:08.464Z,14.50
2022-10-23T05:29:35.371Z,14.70
2022-10-23T05:32:05.457Z,15.13
2022-10-23T05:34:35.167Z,15.43
2022-10-23T05:37:03.576Z,13.65
2022-10-23T05:39:30.617Z,12.45
2022-10-23T05:41:57.464Z,13.95
2022-10-23T05:44:24.435Z,13.10
2022-10-23T05:46:51.327Z,12.98
2022-10-23T05:49:18.282Z,12.90
2022-10-23T05:51:45.238Z,12.23
2022-10-23T05:54:12.147Z,12.23
2022-10-23T05:56:43.170Z,12.13
2022-10-23T05:59:10.720Z,12.90
2022-10-23T06:01:38.374Z,11.68
2022-10-23T06:04:05.995Z,11.70
2022-10-23T06:06:32.935Z,11.10
2022-10-23T06:08:59.921Z,11.60
2022-10-23T06:11:26.851Z,11.38
2022-10-23T06:13:53.809Z,12.43
2022-10-23T06:16:24.662Z,11.27
2022-10-23T06:18:51.566Z,14.82
2022-10-23T06:21:18.604Z,14.45
2022-10-23T06:23:46.778Z,14.45
2022-10-23T06:26:16.163Z,15.73
2022-10-23T06:28:43.473Z,15.80
2022-10-23T06:31:13.311Z,17.75
2022-10-23T06:33:40.504Z,15.05
2022-10-23T06:36:10.721Z,16.85
2022-10-23T06:38:40.571Z,17.35
2022-10-23T06:41:14.010Z,16.38
2022-10-23T06:43:41.087Z,17.67
2022-10-23T06:46:08.195Z,17.33
2022-10-23T06:48:35.051Z,18.85
2022-10-23T06:51:07.516Z,17.25
2022-10-23T06:53:35.890Z,18.70
2022-10-23T06:56:04.528Z,18.65
2022-10-23T06:58:32.039Z,22.45
2022-10-23T07:01:03.477Z,20.55
2022-10-23T07:03:30.774Z,22.48
2022-10-23T07:06:01.872Z,21.35
2022-10-23T07:08:29.554Z,21.90
2022-10-23T07:10:56.925Z,21.58
2022-10-23T07:13:25.090Z,22.52
2022-10-23T07:15:52.089Z,24.98
2022-10-23T07:18:19.592Z,20.80
2022-10-23T07:20:49.508Z,22.77
2022-10-23T07:23:16.735Z,22.27
2022-10-23T07:25:43.627Z,21.50
2022-10-23T07:28:10.555Z,22.13
2022-10-23T07:30:37.467Z,23.05
2022-10-23T07:33:04.382Z,22.50
2022-10-23T07:35:33.102Z,21.35
2022-10-23T07:38:02.647Z,21.70
2022-10-23T07:40:29.515Z,21.92
2022-10-23T07:42:56.815Z,22.25
2022-10-23T07:45:23.695Z,21.25
2022-10-23T07:47:52.162Z,20.95
2022-10-23T07:50:19.662Z,21.48
2022-10-23T07:52:47.025Z,21.15
2022-10-23T07:55:14.389Z,21.02
2022-10-23T07:57:41.300Z,20.75
2022-10-23T08:00:09.628Z,20.25
2022-10-23T08:02:36.877Z,21.40
2022-10-23T08:05:04.664Z,18.60
2022-10-23T08:07:31.590Z,20.83
2022-10-23T08:09:58.540Z,19.58
2022-10-23T08:12:25.445Z,22.88
2022-10-23T08:14:52.550Z,21.20
2022-10-23T08:17:19.591Z,23.08
2022-10-23T08:19:48.590Z,19.98
2022-10-23T08:22:15.943Z,19.17
2022-10-23T08:24:43.026Z,20.20
2022-10-23T08:27:09.995Z,21.58
2022-10-23T08:29:36.947Z,20.77
2022-10-23T08:32:04.435Z,17.65
2022-10-23T08:34:31.546Z,17.13
2022-10-23T08:36:58.585Z,18.13
2022-10-23T08:39:25.527Z,15.75
2022-10-23T08:41:53.418Z,15.77
2022-10-23T08:44:33.586Z,13.88
2022-10-23T08:47:14.613Z,14.60
2022-10-23T08:49:53.973Z,14.77
2022-10-23T08:52:37.612Z,12.18
2022-10-23T08:55:23.601Z,11.73
2022-10-23T08:58:07.560Z,11.02
2022-10-23T09:00:34.877Z,10.90
2022-10-23T09:03:04.708Z,11.18
2022-10-23T09:06:13.609Z,10.60
2022-10-23T09:09:05.101Z,8.90
2022-10-23T09:11:48.309Z,7.05
2022-10-23T09:14:30.093Z,7.53
2022-10-23T09:17:17.102Z,6.43
2022-10-23T09:19:45.886Z,7.10
2022-10-23T09:22:13.723Z,7.10
2022-10-23T09:24:43.766Z,6.80
2022-10-23T09:27:16.956Z,6.45
2022-10-23T09:29:53.160Z,6.22
2022-10-23T09:32:21.081Z,6.68
2022-10-23T09:34:55.364Z,5.93
2022-10-23T09:39:49.487Z,4.68
2022-10-23T09:42:26.454Z,5.45
2022-10-23T09:44:55.183Z,4.88
2022-10-23T09:47:24.649Z,5.40
2022-10-23T09:49:54.088Z,4.78
2022-10-23T09:52:39.620Z,5.10
2022-10-23T09:55:24.984Z,4.40
2022-10-23T09:57:53.900Z,6.35
2022-10-23T10:00:24.225Z,4.43
2022-10-23T10:02:57.292Z,4.32
2022-10-23T10:05:31.287Z,4.35
2022-10-23T10:08:07.439Z,3.63
2022-10-23T10:10:39.462Z,3.92
2022-10-23T10:13:37.888Z,4.05
2022-10-23T10:16:05.036Z,3.63
2022-10-23T10:18:38.055Z,5.25
2022-10-23T10:21:11.089Z,3.25
2022-10-23T10:23:50.454Z,3.40
2022-10-23T10:26:44.510Z,3.30
2022-10-23T10:29:56.182Z,3.57
2022-10-23T10:32:41.393Z,3.30
2022-10-23T10:35:37.643Z,4.68
2022-10-23T10:38:27.594Z,3.85
2022-10-23T10:41:09.737Z,3.50
2022-10-23T10:44:15.867Z,3.28
2022-10-23T10:46:48.356Z,3.10
2022-10-23T10:49:53.524Z,3.17
2022-10-23T10:52:31.897Z,2.55
2022-10-23T10:58:58.304Z,3.22
2022-10-23T11:01:31.159Z,4.03
2022-10-23T11:04:35.476Z,2.85
2022-10-23T11:07:08.248Z,2.78
2022-10-23T11:09:35.399Z,3.75
2022-10-23T11:12:02.320Z,2.58
2022-10-23T11:14:33.265Z,2.20
2022-10-23T11:17:14.292Z,3.22
2022-10-23T11:19:46.316Z,3.92
2022-10-23T11:22:46.661Z,2.45
2022-10-23T11:25:41.662Z,1.90
2022-10-23T11:30:59.670Z,2.63
2022-10-23T11:33:47.094Z,2.17
2022-10-23T11:36:40.735Z,2.80
2022-10-23T11:39:18.388Z,2.00
2022-10-23T11:41:58.090Z,2.40
2022-10-23T11:44:49.627Z,2.35
2022-10-23T11:47:25.509Z,2.25
2022-10-23T11:50:05.257Z,3.20
2022-10-23T11:52:32.337Z,2.50
2022-10-23T11:55:04.767Z,2.50
2022-10-23T11:57:31.691Z,2.63
2022-10-23T11:59:58.735Z,2.30
2022-10-23T12:02:32.806Z,2.38
2022-10-23T12:05:09.992Z,2.20
2022-10-23T12:07:39.988Z,2.35
2022-10-23T12:10:19.350Z,2.20
2022-10-23T12:12:57.400Z,2.47
2022-10-23T12:15:26.066Z,2.65
2022-10-23T12:17:54.908Z,2.60
2022-10-23T12:20:35.269Z,2.50
2022-10-23T12:23:36.314Z,2.40
2022-10-23T12:26:31.337Z,2.40
2022-10-23T12:29:29.384Z,2.70
2022-10-23T12:32:19.945Z,2.38
2022-10-23T12:34:49.863Z,2.50
2022-10-23T12:37:44.128Z,2.38
2022-10-23T12:40:12.270Z,2.85
2022-10-23T12:42:39.772Z,2.25
2022-10-23T12:45:20.761Z,2.15
2022-10-23T12:47:49.995Z,2.10
2022-10-23T12:50:21.865Z,1.92
2022-10-23T12:53:03.613Z,2.28
2022-10-23T12:56:03.262Z,2.38
2022-10-23T12:58:33.534Z,1.88
2022-10-23T13:01:02.976Z,2.28
2022-10-23T13:03:31.794Z,2.90
2022-10-23T13:06:02.657Z,2.10
2022-10-23T13:08:40.748Z,2.65
2022-10-23T13:11:12.293Z,2.35
2022-10-23T13:13:40.066Z,2.53
2022-10-23T13:16:19.451Z,2.30
2022-10-23T13:18:46.831Z,2.50
2022-10-23T13:21:25.646Z,2.30
2022-10-23T13:23:53.977Z,2.55
2022-10-23T13:26:45.403Z,2.22
2022-10-23T13:29:30.990Z,2.75
2022-10-23T13:31:58.580Z,2.53
2022-10-23T13:34:29.599Z,2.28
2022-10-23T13:37:16.385Z,2.83
2022-10-23T13:39:43.285Z,2.33
2022-10-23T13:42:14.811Z,2.35
2022-10-23T13:44:41.887Z,3.67
2022-10-23T13:47:13.409Z,2.25
2022-10-23T13:49:40.327Z,2.30
2022-10-23T13:52:12.860Z,2.40
2022-10-23T13:54:39.804Z,2.75
2022-10-23T13:57:11.490Z,4.07
2022-10-23T13:59:38.411Z,2.58
2022-10-23T14:02:21.100Z,2.67
2022-10-23T14:04:49.767Z,2.78
2022-10-23T14:07:17.079Z,2.58
2022-10-23T14:09:44.427Z,2.42
2022-10-23T14:12:12.477Z,3.15
2022-10-23T14:14:39.485Z,2.63
2022-10-23T14:17:06.355Z,2.85
2022-10-23T14:22:04.112Z,2.40
2022-10-23T14:24:31.002Z,2.65
2022-10-23T14:26:57.997Z,2.35
2022-10-23T14:29:25.015Z,2.50
2022-10-23T14:31:52.191Z,2.20
2022-10-23T14:34:19.336Z,2.20
2022-10-23T14:36:50.249Z,2.38
2022-10-23T14:39:23.590Z,2.63
2022-10-23T14:41:50.515Z,2.63
2022-10-23T14:44:17.421Z,2.20
2022-10-23T14:46:44.319Z,3.17
2022-10-23T14:49:11.227Z,3.78
2022-10-23T14:51:38.452Z,3.97
2022-10-23T14:54:07.027Z,2.90
2022-10-23T14:56:37.582Z,3.63
2022-10-23T14:59:05.008Z,3.08
2022-10-23T15:01:43.900Z,3.40
2022-10-23T15:04:14.762Z,3.30
2022-10-23T15:06:42.537Z,2.80
2022-10-23T15:09:09.793Z,3.10
2022-10-23T15:11:36.769Z,3.20
2022-10-23T15:14:03.689Z,3.72
2022-10-23T15:16:30.942Z,2.78
2022-10-23T15:18:57.910Z,3.92
2022-10-23T15:21:25.063Z,3.92
2022-10-23T15:23:53.066Z,3.45
2022-10-23T15:26:23.056Z,3.60
2022-10-23T15:28:55.368Z,3.90
2022-10-23T15:31:43.464Z,3.35
2022-10-23T15:34:14.021Z,3.92
2022-10-23T15:36:41.408Z,3.17
2022-10-23T15:39:10.367Z,3.95
2022-10-23T15:41:39.388Z,3.40
2022-10-23T15:44:07.270Z,4.20
2022-10-23T15:46:34.528Z,3.90
2022-10-23T15:49:01.615Z,3.78
2022-10-23T15:51:28.729Z,3.90
2022-10-23T15:53:57.124Z,4.15
2022-10-23T15:56:25.210Z,5.22
2022-10-23T15:58:52.328Z,4.13
2022-10-23T16:01:19.636Z,4.65
2022-10-23T16:03:47.065Z,5.07
2022-10-23T16:06:16.279Z,4.50
2022-10-23T16:08:46.147Z,5.25
2022-10-23T16:11:20.113Z,5.88
2022-10-23T16:13:47.781Z,5.30
2022-10-23T16:16:15.110Z,5.35
2022-10-23T16:18:43.770Z,5.35
2022-10-23T16:21:19.241Z,5.28
2022-10-23T16:23:46.824Z,6.13
2022-10-23T16:26:14.215Z,5.68
2022-10-23T16:28:43.445Z,5.25
2022-10-23T16:31:16.357Z,6.10
2022-10-23T16:36:11.897Z,6.63
2022-10-23T16:38:38.951Z,7.18
2022-10-23T16:41:07.159Z,6.95
2022-10-23T16:43:34.220Z,7.38
2022-10-23T16:46:11.392Z,6.45
2022-10-23T16:48:38.853Z,8.02
2022-10-23T16:51:11.883Z,8.02
2022-10-23T16:53:39.418Z,8.27
2022-10-23T16:56:08.415Z,9.35
2022-10-23T16:58:35.840Z,9.88
2022-10-23T17:01:08.824Z,10.65
2022-10-23T17:03:37.818Z,11.07
2022-10-23T17:06:08.793Z,10.20
2022-10-23T17:08:37.518Z,10.15
2022-10-23T17:11:06.976Z,11.40
2022-10-23T17:13:35.579Z,10.15
2022-10-23T17:16:21.081Z,9.63
2022-10-23T17:18:48.027Z,9.23
2022-10-23T17:21:20.780Z,9.25
2022-10-23T17:23:49.097Z,8.15
2022-10-23T17:26:19.313Z,7.80
2022-10-23T17:28:46.448Z,8.02
2022-10-23T17:31:22.920Z,8.60
2022-10-23T17:33:52.567Z,7.90
2022-10-23T17:36:21.289Z,8.30
2022-10-23T17:38:48.692Z,8.50
2022-10-23T17:41:17.326Z,9.60
2022-10-23T17:43:44.637Z,10.20
2022-10-23T17:46:12.831Z,9.77
2022-10-23T17:48:41.941Z,9.63
2022-10-23T17:51:14.260Z,8.57
2022-10-23T17:53:43.406Z,9.57
2022-10-23T17:56:12.833Z,8.60
2022-10-23T17:58:40.035Z,9.85
2022-10-23T18:01:09.198Z,8.52
2022-10-23T18:03:37.134Z,9.75
2022-10-23T18:06:28.874Z,8.70
2022-10-23T18:08:57.288Z,8.30
2022-10-23T18:11:27.632Z,9.02
2022-10-23T18:13:55.347Z,8.82
2022-10-23T18:16:22.283Z,9.68
2022-10-23T18:18:51.724Z,9.27
2022-10-23T18:21:20.867Z,8.98
2022-10-23T18:23:47.771Z,9.18
2022-10-23T18:26:27.064Z,9.88
2022-10-23T18:28:57.040Z,10.02
2022-10-23T18:31:25.938Z,9.25
2022-10-23T18:34:03.070Z,9.70
2022-10-23T18:36:33.126Z,10.25
2022-10-23T18:39:00.394Z,9.82
2022-10-23T18:41:28.206Z,9.23
2022-10-23T18:43:55.458Z,9.95
2022-10-23T18:46:22.651Z,14.30
2022-10-23T18:48:52.840Z,10.20
2022-10-23T18:51:26.709Z,10.60
2022-10-23T18:53:53.778Z,10.73
2022-10-23T18:56:23.563Z,10.90
2022-10-23T18:58:51.681Z,10.73
2022-10-23T19:01:19.640Z,12.52
2022-10-23T19:03:47.252Z,13.35
2022-10-23T19:06:14.523Z,22.38
2022-10-23T19:08:43.644Z,16.25
2022-10-23T19:11:12.231Z,16.52
2022-10-23T19:13:40.468Z,15.55
2022-10-23T19:16:12.588Z,15.48
2022-10-23T19:18:42.831Z,14.10
2022-10-23T19:21:09.881Z,16.38
2022-10-23T19:23:38.077Z,14.25
2022-10-23T19:26:08.998Z,12.50
2022-10-23T19:28:37.930Z,13.80
2022-10-23T19:31:06.109Z,14.00
2022-10-23T19:33:34.519Z,16.15
2022-10-23T19:36:05.307Z,16.48
2022-10-23T19:38:35.062Z,18.02
2022-10-23T19:41:02.168Z,19.67
2022-10-23T19:43:29.060Z,15.40
2022-10-23T19:45:56.072Z,14.30
2022-10-23T19:52:04.088Z,13.38
2022-10-23T19:58:18.975Z,11.77
2022-10-23T20:00:45.871Z,11.50
2022-10-23T20:03:12.939Z,11.82
2022-10-23T20:05:45.538Z,11.27
2022-10-23T20:08:12.601Z,10.80
2022-10-23T20:10:43.851Z,11.77
2022-10-23T20:13:20.731Z,10.73
2022-10-23T20:15:47.974Z,11.75
2022-10-23T20:18:15.024Z,12.63
2022-10-23T20:20:42.645Z,12.73
2022-10-23T20:23:09.578Z,11.32
2022-10-23T20:25:36.782Z,11.15
2022-10-23T20:28:04.037Z,11.00
2022-10-23T20:30:31.315Z,10.75
2022-10-23T20:32:58.351Z,11.27
2022-10-23T20:35:25.344Z,11.80
2022-10-23T20:37:52.290Z,12.65
2022-10-23T20:40:19.197Z,13.13
2022-10-23T20:42:46.069Z,13.90
2022-10-23T20:45:12.979Z,14.15
2022-10-23T20:47:39.999Z,13.55
2022-10-23T20:50:08.706Z,14.07
2022-10-23T20:52:35.634Z,14.95
2022-10-23T20:55:02.539Z,14.98
2022-10-23T20:57:29.507Z,16.92
2022-10-23T20:59:56.493Z,18.60
2022-10-23T21:02:23.605Z,19.65
2022-10-23T21:04:50.636Z,16.83
2022-10-23T21:07:18.345Z,18.88
2022-10-23T21:09:45.319Z,18.70
2022-10-23T21:12:12.303Z,17.58
2022-10-23T21:14:39.647Z,18.50
2022-10-23T21:17:08.466Z,18.30
2022-10-23T21:19:35.480Z,18.35
2022-10-23T21:22:02.401Z,18.60
2022-10-23T21:24:29.300Z,18.73
2022-10-23T21:26:56.159Z,18.65
2022-10-23T21:29:23.085Z,17.90
2022-10-23T21:31:55.244Z,17.45
2022-10-23T21:34:23.438Z,16.90
2022-10-23T21:39:37.582Z,16.85
2022-10-23T21:42:04.776Z,16.05
2022-10-23T21:44:31.650Z,15.52
2022-10-23T21:46:58.580Z,15.82
2022-10-23T21:49:25.466Z,14.32
2022-10-23T21:51:53.171Z,13.52
2022-10-23T21:54:20.085Z,15.30
2022-10-23T21:56:49.621Z,14.90
2022-10-23T21:59:19.291Z,14.98
2022-10-23T22:01:47.761Z,14.95
2022-10-23T22:04:17.364Z,14.82
2022-10-23T22:06:46.109Z,14.85
2022-10-23T22:09:16.695Z,14.50
2022-10-23T22:11:43.676Z,15.32
2022-10-23T22:14:10.748Z,14.80
2022-10-23T22:16:37.805Z,14.43
2022-10-23T22:19:04.857Z,14.82
2022-10-23T22:21:32.060Z,15.20
2022-10-23T22:24:00.447Z,15.07
2022-10-23T22:26:40.825Z,14.73
2022-10-23T22:29:16.894Z,13.85
2022-10-23T22:31:47.303Z,13.77
2022-10-23T22:34:47.808Z,13.63
2022-10-23T22:37:12.902Z,13.35
2022-10-23T22:39:40.203Z,13.77
2022-10-23T22:42:07.256Z,13.77
2022-10-23T22:44:34.153Z,13.57
2022-10-23T22:47:01.047Z,13.27
2022-10-23T22:49:28.063Z,13.07
2022-10-23T22:51:54.959Z,12.40
2022-10-23T22:54:21.881Z,12.60
2022-10-23T22:56:48.785Z,13.90
2022-10-23T22:59:15.663Z,13.45
2022-10-23T23:01:48.597Z,13.20
2022-10-23T23:07:06.332Z,13.13
2022-10-23T23:09:36.873Z,12.70
2022-10-23T23:12:04.092Z,13.95
2022-10-23T23:14:31.078Z,12.52
2022-10-23T23:16:58.104Z,13.38
2022-10-23T23:19:26.686Z,13.02
2022-10-23T23:21:58.109Z,12.80
2022-10-23T23:24:26.066Z,12.77
2022-10-23T23:26:53.009Z,13.68
2022-10-23T23:29:19.925Z,13.32
2022-10-23T23:31:46.787Z,12.23
2022-10-23T23:34:13.702Z,12.50
2022-10-23T23:36:41.332Z,12.18
2022-10-23T23:39:08.238Z,11.75
2022-10-23T23:41:35.174Z,13.13
2022-10-23T23:44:02.237Z,12.05
2022-10-23T23:46:29.231Z,13.40
2022-10-23T23:48:56.170Z,13.93
2022-10-23T23:51:24.693Z,15.48
2022-10-23T23:53:52.299Z,14.70
2022-10-23T23:56:19.717Z,14.43
2022-10-23T23:58:46.887Z,13.65
